Latest Weather Observations for Loxton

IDS60801

Issued at 5:31 pm CST Monday 21 August 2017 (issued every 30 minutes, with the page automatically refreshed every 10 minutes)

About weather observations | Map of weather stations | Latest weather observations for SA | Other Formats
Station Details ID: 024024 Name: LOXTON RESEARCH CENTRE Lat: -34.44 Lon: 140.60 Height: 30.1 m
Data from the previous 72 hours. | See also: Recent months at Loxton
Date/Time
CST
Temp
°C
App
Temp
°C
Dew
Point
°C
Rel
Hum
%
Delta-T
°C
Wind Press
QNH
hPa
Press
MSL
hPa
Rain since
9am
mm
Dir  Spd
km/h
Gust
km/h
Spd
kts
Gust
kts
21/05:30pm 13.5 11.7 7.8 68 2.8 SSW 7 7 4 4 1012.8 1012.8 -
21/05:00pm 14.7 13.3 7.2 61 3.7 SSW 4 13 2 7 1012.3 1012.4 0.0
21/04:30pm 14.3 12.2 8.3 67 3.0 S 9 15 5 8 1011.9 1012.0 0.0
21/04:00pm 15.1 12.4 7.4 60 3.8 WSW 11 17 6 9 1011.5 1011.6 0.0
21/03:30pm 15.1 11.7 7.7 61 3.7 SW 15 20 8 11 1010.9 1011.0 0.0
21/03:00pm 15.9 14.0 6.8 54 4.5 SW 6 7 3 4 1010.4 1010.5 0.0
21/02:30pm 15.6 13.0 6.1 53 4.6 W 9 13 5 7 1010.3 1010.4 0.0
21/02:00pm 15.2 13.6 6.3 55 4.3 WSW 4 13 2 7 1010.1 1010.2 0.0
21/01:30pm 14.1 9.9 7.4 64 3.3 W 19 28 10 15 1010.0 1010.1 0.0
21/01:00pm 15.5 12.1 3.8 45 5.4 W 11 15 6 8 1009.8 1009.9 0.0
21/12:30pm 15.4 12.2 3.1 43 5.6 N 9 17 5 9 1009.8 1009.9 0.0
21/12:00pm 15.5 11.1 2.6 42 5.8 N 15 24 8 13 1010.0 1010.1 0.0
21/11:30am 14.6 10.9 2.5 44 5.4 N 11 19 6 10 1010.1 1010.2 0.0
21/11:00am 13.0 8.4 1.6 46 4.9 N 15 22 8 12 1010.5 1010.6 0.0
21/10:30am 12.5 7.6 1.8 48 4.6 N 17 22 9 12 1010.8 1010.9 0.0
21/10:00am 11.7 6.3 1.3 49 4.4 N 19 28 10 15 1010.5 1010.6 0.0
21/09:30am 11.3 5.8 1.6 51 4.1 N 20 28 11 15 1010.6 1010.7 0.0
21/09:00am 10.8 6.6 1.8 54 3.8 NNE 13 20 7 11 1010.8 1010.9 2.2
21/08:30am 10.1 6.1 2.6 59 3.2 NNE 13 17 7 9 1010.9 1011.0 2.2
21/08:00am 8.9 5.7 3.1 67 2.5 NNE 9 13 5 7 1011.0 1011.1 2.2
21/07:30am 8.6 5.3 2.4 65 2.6 NNE 9 13 5 7 1010.9 1011.0 2.2
21/07:00am 8.1 4.5 2.9 70 2.2 NE 11 17 6 9 1010.9 1011.0 2.2
21/06:30am 7.5 4.4 3.5 76 1.7 ENE 9 13 5 7 1010.6 1010.7 2.2
21/06:00am 7.2 3.7 3.4 77 1.6 ENE 11 17 6 9 1010.3 1010.4 2.2
21/05:30am 7.1 3.2 3.3 77 1.6 NE 13 19 7 10 1010.1 1010.2 2.2
21/05:00am 6.8 2.9 3.2 78 1.5 ENE 13 19 7 10 1010.1 1010.2 2.2
21/04:30am 5.5 2.4 3.6 87 0.8 E 9 11 5 6 1010.4 1010.5 2.2
21/04:00am 5.7 2.2 3.6 86 0.9 E 11 13 6 7 1010.6 1010.7 2.2
21/03:30am 5.5 2.4 3.6 87 0.8 ENE 9 13 5 7 1011.2 1011.3 2.2
21/03:00am 5.0 1.9 3.6 91 0.6 ENE 9 11 5 6 1011.8 1011.9 2.2
21/02:30am 5.9 3.4 4.0 88 0.8 E 6 7 3 4 1012.6 1012.7 2.2
21/02:00am 7.0 4.0 4.2 82 1.2 NE 9 13 5 7 1013.1 1013.1 2.2
21/01:30am 7.4 4.4 4.2 80 1.4 NE 9 15 5 8 1013.3 1013.3 2.2
21/01:00am 8.2 4.9 4.6 78 1.6 NE 11 15 6 8 1013.8 1013.8 2.2
21/12:30am 8.7 5.4 4.4 74 1.9 NE 11 13 6 7 1014.4 1014.4 2.2
21/12:00am 8.9 5.1 4.1 72 2.1 NE 13 19 7 10 1015.3 1015.3 2.2
 
Date/Time
CST
Temp
°C
App
Temp
°C
Dew
Point
°C
Rel
Hum
%
Delta-T
°C
Wind Press
QNH
hPa
Press
MSL
hPa
Rain since
9am
mm
Dir  Spd
km/h
Gust
km/h
Spd
kts
Gust
kts
20/11:30pm 8.5 6.3 5.1 79 1.5 NE 6 11 3 6 1015.5 1015.5 2.2
20/11:00pm 8.3 6.1 5.4 82 1.3 ENE 6 7 3 4 1016.1 1016.1 2.2
20/10:30pm 8.7 5.8 4.9 77 1.7 NE 9 19 5 10 1016.5 1016.5 2.2
20/10:00pm 8.3 7.5 6.3 87 0.9 CALM 0 0 0 0 1017.2 1017.2 2.2
20/09:30pm 8.9 5.2 4.6 74 1.9 NNW 13 28 7 15 1017.9 1017.9 2.0
20/09:00pm 8.8 7.8 5.7 81 1.4 CALM 0 0 0 0 1017.4 1017.4 1.6
20/08:30pm 9.5 6.1 3.8 67 2.5 N 11 17 6 9 1017.7 1017.7 1.4
20/08:00pm 9.5 7.3 5.1 74 2.0 E 6 9 3 5 1017.1 1017.1 0.6
20/07:30pm 10.2 6.5 2.5 59 3.3 E 11 22 6 12 1016.4 1016.4 0.4
20/07:00pm 10.9 7.5 1.9 54 3.8 E 9 13 5 7 1016.5 1016.5 0.0
20/06:30pm 11.6 7.9 -0.2 44 4.8 ENE 9 13 5 7 1016.3 1016.3 0.0
20/06:00pm 12.2 7.9 -1.4 39 5.4 ENE 11 15 6 8 1016.2 1016.2 0.0
20/05:30pm 12.7 8.0 -2.0 36 5.8 NE 13 17 7 9 1016.2 1016.2 0.0
20/05:00pm 13.0 7.9 -2.2 35 6.0 NE 15 19 8 10 1016.8 1016.8 0.0
20/04:30pm 13.5 7.9 -3.3 31 6.5 NNE 17 22 9 12 1017.0 1017.0 0.0
20/04:00pm 14.0 7.7 -4.1 28 6.9 NNE 20 28 11 15 1017.0 1017.0 0.0
20/03:30pm 14.0 8.4 -2.8 31 6.6 NNE 17 26 9 14 1018.1 1018.1 0.0
20/03:00pm 14.0 7.9 -3.6 29 6.8 NNE 19 28 10 15 1018.6 1018.6 0.0
20/02:30pm 14.0 7.8 -3.2 30 6.7 NNE 20 28 11 15 1018.9 1018.9 0.0
20/02:00pm 13.8 7.8 -3.2 30 6.6 NNE 19 32 10 17 1019.8 1019.8 0.0
20/01:30pm 14.1 8.2 -1.9 33 6.4 NNE 19 28 10 15 1020.2 1020.2 0.0
20/01:00pm 14.3 8.0 -4.0 28 7.0 NNE 20 30 11 16 1020.9 1020.9 0.0
20/12:30pm 13.8 7.4 -1.7 34 6.2 NNE 22 32 12 17 1021.7 1021.7 0.0
20/12:00pm 13.6 7.7 -0.5 38 5.8 NNE 20 35 11 19 1022.9 1022.9 0.0
20/11:30am 13.2 6.9 -1.2 37 5.8 NNE 22 30 12 16 1023.8 1023.8 0.0
20/11:00am 12.6 6.4 -0.4 40 5.3 NE 22 30 12 16 1024.4 1024.4 0.0
20/10:30am 11.7 5.9 -0.1 44 4.8 NE 20 30 11 16 1024.9 1024.9 0.0
20/10:00am 10.7 6.6 2.5 57 3.5 NE 13 26 7 14 1025.6 1025.6 0.0
20/09:30am 8.6 4.5 2.4 65 2.6 NE 13 17 7 9 1026.2 1026.2 0.0
20/09:00am 8.1 4.1 2.6 68 2.3 NE 13 17 7 9 1026.5 1026.5 0.0
20/08:30am 6.3 2.4 1.2 70 2.0 ENE 11 13 6 7 1026.6 1026.6 0.0
20/08:00am 3.3 1.4 0.6 82 1.0 CALM 0 0 0 0 1026.6 1026.6 0.0
20/07:30am 1.1 -0.9 0.0 92 0.4 CALM 0 0 0 0 1026.8 1026.8 0.0
20/07:00am -1.3 - - - - CALM 0 0 0 0 1026.7 1026.7 0.0
20/06:30am -1.4 - - - - CALM 0 0 0 0 1026.9 1026.9 0.0
20/06:00am -1.6 - - - - CALM 0 0 0 0 1026.7 1026.7 0.0
20/05:30am -0.5 - - - - CALM 0 0 0 0 1026.7 1026.7 0.0
20/05:00am -1.5 - - - - CALM 0 0 0 0 1026.4 1026.4 0.0
20/04:30am -0.8 - - - - CALM 0 0 0 0 1026.3 1026.3 0.0
20/04:00am -0.7 - - - - CALM 0 0 0 0 1026.4 1026.4 0.0
20/03:30am -0.6 - - - - CALM 0 0 0 0 1026.6 1026.6 0.0
20/03:00am -0.5 - - - - CALM 0 0 0 0 1026.7 1026.7 0.0
20/02:30am -0.2 - - - - CALM 0 0 0 0 1026.8 1026.8 0.0
20/02:00am 0.1 - - - - CALM 0 0 0 0 1027.0 1027.0 0.0
20/01:30am 0.8 -1.2 0.0 94 0.3 CALM 0 0 0 0 1027.2 1027.2 0.0
20/01:00am 1.1 -0.8 0.3 94 0.3 CALM 0 0 0 0 1027.3 1027.3 0.0
20/12:30am 1.4 -0.6 0.0 90 0.5 CALM 0 0 0 0 1027.3 1027.3 0.0
20/12:00am 1.2 -0.8 0.1 92 0.4 CALM 0 0 0 0 1027.4 1027.4 0.0
 
Date/Time
CST
Temp
°C
App
Temp
°C
Dew
Point
°C
Rel
Hum
%
Delta-T
°C
Wind Press
QNH
hPa
Press
MSL
hPa
Rain since
9am
mm
Dir  Spd
km/h
Gust
km/h
Spd
kts
Gust
kts
19/11:30pm 1.8 -0.1 0.4 90 0.5 CALM 0 0 0 0 1027.7 1027.7 0.0
19/11:00pm 1.4 -0.6 0.0 90 0.5 CALM 0 0 0 0 1027.9 1027.9 0.0
19/10:30pm 2.2 0.3 0.6 89 0.6 CALM 0 0 0 0 1028.3 1028.3 0.0
19/10:00pm 3.0 1.3 2.0 93 0.4 CALM 0 0 0 0 1028.2 1028.2 0.0
19/09:30pm 3.5 1.8 2.0 90 0.6 CALM 0 0 0 0 1028.4 1028.4 0.0
19/09:00pm 3.8 2.1 2.0 88 0.7 CALM 0 0 0 0 1028.5 1028.5 0.0
19/08:30pm 4.6 3.1 2.9 89 0.7 CALM 0 0 0 0 1028.4 1028.4 0.0
19/08:00pm 5.3 3.9 3.6 89 0.7 CALM 0 0 0 0 1028.3 1028.3 0.0
19/07:30pm 5.9 4.4 3.2 83 1.1 CALM 0 0 0 0 1028.2 1028.2 0.0
19/07:00pm 6.9 5.6 4.1 82 1.2 CALM 0 0 0 0 1028.1 1028.1 0.0
19/06:30pm 8.3 6.2 3.9 74 1.9 SSE 4 7 2 4 1028.0 1028.0 0.0
19/06:00pm 10.1 7.7 4.5 68 2.5 SE 6 7 3 4 1027.7 1027.7 0.0
19/05:30pm 12.5 9.1 2.0 48 4.5 SE 9 13 5 7 1027.5 1027.5 0.0
19/05:00pm 13.8 10.2 0.4 40 5.6 SE 9 13 5 7 1027.2 1027.2 0.0
19/04:30pm 14.4 9.9 -0.3 36 6.1 SE 13 17 7 9 1027.0 1027.0 0.0
19/04:00pm 14.7 10.4 -1.6 32 6.6 SSE 11 35 6 19 1026.9 1026.9 0.0
19/03:30pm 14.2 9.4 0.4 39 5.8 SE 15 19 8 10 1027.1 1027.1 0.0
19/03:00pm 15.2 10.8 0.3 36 6.3 S 13 22 7 12 1027.2 1027.2 0.0
19/02:30pm 15.0 10.9 0.0 36 6.3 SSW 11 17 6 9 1027.6 1027.6 0.0
19/02:00pm 15.2 11.4 1.7 40 5.9 SSW 11 19 6 10 1027.8 1027.8 0.0
19/01:30pm 13.8 9.5 1.1 42 5.4 SSE 13 19 7 10 1028.1 1028.1 0.0
19/01:00pm 14.3 10.8 1.5 42 5.6 SW 9 17 5 9 1028.4 1028.4 0.0
19/12:30pm 13.8 9.6 1.4 43 5.3 SE 13 20 7 11 1028.8 1028.8 0.0
19/12:00pm 13.1 9.6 3.4 51 4.3 SE 11 15 6 8 1029.2 1029.2 0.0
19/11:30am 13.5 9.5 3.1 49 4.6 S 13 19 7 10 1029.5 1029.5 0.0
19/11:00am 12.6 8.7 3.6 54 4.0 S 13 20 7 11 1029.8 1029.8 0.0
19/10:30am 12.5 9.8 5.8 63 3.1 SSW 9 15 5 8 1030.0 1030.0 0.0
19/10:00am 11.4 8.2 5.3 66 2.8 SW 11 15 6 8 1030.1 1030.1 0.0
19/09:30am 10.9 7.5 6.1 72 2.2 SSW 13 20 7 11 1030.2 1030.2 0.0
19/09:00am 9.9 6.9 6.2 78 1.7 SW 11 15 6 8 1030.1 1030.1 0.0
19/08:30am 7.7 6.7 5.7 87 0.9 CALM 0 0 0 0 1029.7 1029.7 0.0
19/08:00am 6.4 3.2 5.0 91 0.6 SW 11 17 6 9 1029.5 1029.5 0.0
19/07:30am 4.9 3.6 3.9 93 0.4 CALM 0 0 0 0 1029.0 1029.0 0.0
19/07:00am 4.3 2.9 3.3 93 0.4 CALM 0 0 0 0 1028.4 1028.4 0.0
19/06:30am 4.0 1.2 3.0 93 0.4 WSW 7 9 4 5 1028.0 1028.0 0.0
19/06:00am 3.8 0.6 3.1 95 0.3 W 9 11 5 6 1027.5 1027.5 0.0
19/05:30am 4.0 1.2 3.0 93 0.4 W 7 9 4 5 1027.2 1027.2 0.0
19/05:00am 4.6 1.5 3.4 92 0.5 W 9 11 5 6 1026.9 1026.9 0.0
19/04:30am 5.1 1.3 3.7 91 0.6 WSW 13 17 7 9 1026.7 1026.7 0.0
19/04:00am 5.0 1.9 3.5 90 0.6 W 9 13 5 7 1026.4 1026.4 0.0
19/03:30am 4.8 1.7 3.6 92 0.5 W 9 15 5 8 1026.4 1026.4 0.0
19/03:00am 4.6 1.8 3.4 92 0.5 W 7 9 4 5 1026.3 1026.3 0.0
19/02:30am 5.7 2.2 3.5 86 0.9 W 11 15 6 8 1026.3 1026.3 0.0
19/02:00am 5.3 2.6 3.9 91 0.6 W 7 9 4 5 1026.4 1026.4 0.0
19/01:30am 5.7 2.7 4.0 89 0.7 W 9 11 5 6 1026.4 1026.4 0.0
19/01:00am 6.2 3.2 4.3 88 0.8 WNW 9 15 5 8 1026.3 1026.3 0.0
19/12:30am 6.6 3.3 4.5 86 0.9 WNW 11 13 6 7 1026.4 1026.4 0.0
19/12:00am 6.6 5.1 4.8 88 0.8 W 2 7 1 4 1026.4 1026.4 0.0
 
Date/Time
CST
Temp
°C
App
Temp
°C
Dew
Point
°C
Rel
Hum
%
Delta-T
°C
Wind Press
QNH
hPa
Press
MSL
hPa
Rain since
9am
mm
Dir  Spd
km/h
Gust
km/h
Spd
kts
Gust
kts
18/11:30pm 7.2 4.3 4.4 82 1.2 WNW 9 11 5 6 1026.3 1026.3 0.0
18/11:00pm 7.8 4.2 4.8 81 1.3 W 13 17 7 9 1026.3 1026.3 0.0
18/10:30pm 8.6 4.6 4.7 76 1.7 WSW 15 24 8 13 1026.2 1026.2 0.0
18/10:00pm 8.4 4.7 4.5 76 1.7 WSW 13 19 7 10 1026.1 1026.1 0.0
18/09:30pm 8.9 5.2 4.6 74 1.9 WSW 13 19 7 10 1026.0 1026.0 0.0
18/09:00pm 8.8 5.1 4.2 73 2.0 WSW 13 19 7 10 1026.0 1026.0 0.0
18/08:30pm 9.4 5.6 3.9 68 2.4 WSW 13 19 7 10 1025.7 1025.7 0.0
18/08:00pm 9.8 6.0 3.8 66 2.6 WSW 13 19 7 10 1025.5 1025.5 0.0
18/07:30pm 10.2 6.0 3.8 64 2.8 WSW 15 20 8 11 1025.3 1025.3 0.0
18/07:00pm 10.5 6.2 3.4 61 3.1 WSW 15 22 8 12 1024.9 1024.9 0.0
18/06:30pm 11.2 6.8 2.6 55 3.7 WSW 15 24 8 13 1024.6 1024.6 0.0
18/06:00pm 12.1 6.6 1.8 49 4.4 WSW 20 30 11 16 1024.1 1024.1 0.0

Other Formats:

Comma delimited format used in spreadsheet applications
http://www.bom.gov.au/fwo/IDS60801/IDS60801.94682.axf

JavaScript Object Notation format (JSON) in row-major order
http://www.bom.gov.au/fwo/IDS60801/IDS60801.94682.json